createdAt,value
2023-02-23T00:00:01.109Z,43.00
2023-02-23T00:02:55.883Z,42.90
2023-02-23T00:05:48.919Z,42.90
2023-02-23T00:08:42.900Z,42.90
2023-02-23T00:11:36.279Z,43.20
2023-02-23T00:14:31.938Z,42.90
2023-02-23T00:17:24.745Z,42.90
2023-02-23T00:20:18.573Z,42.90
2023-02-23T00:23:11.628Z,42.90
2023-02-23T00:26:05.225Z,42.80
2023-02-23T00:28:59.932Z,42.80
2023-02-23T00:31:56.044Z,42.90
2023-02-23T00:34:50.363Z,42.90
2023-02-23T00:37:45.246Z,42.90
2023-02-23T00:40:42.994Z,42.80
2023-02-23T00:43:37.162Z,42.80
2023-02-23T00:46:31.520Z,42.90
2023-02-23T00:49:26.946Z,42.80
2023-02-23T00:52:20.223Z,42.80
2023-02-23T00:55:15.914Z,42.80
2023-02-23T00:58:09.671Z,42.80
2023-02-23T01:01:02.722Z,42.80
2023-02-23T01:03:56.051Z,42.80
2023-02-23T01:06:50.282Z,42.80
2023-02-23T01:09:43.981Z,42.80
2023-02-23T01:12:36.747Z,42.80
2023-02-23T01:15:29.948Z,42.80
2023-02-23T01:18:22.738Z,42.80
2023-02-23T01:21:18.337Z,42.80
2023-02-23T01:24:13.819Z,42.70
2023-02-23T01:27:06.696Z,42.80
2023-02-23T01:29:59.916Z,42.80
2023-02-23T01:32:53.187Z,42.80
2023-02-23T01:35:45.996Z,42.70
2023-02-23T01:38:38.934Z,42.80
2023-02-23T01:41:33.817Z,42.80
2023-02-23T01:45:18.812Z,42.80
2023-02-23T01:48:16.078Z,42.90
2023-02-23T01:51:10.808Z,42.90
2023-02-23T01:54:10.218Z,42.90
2023-02-23T01:57:06.107Z,42.90
2023-02-23T01:59:59.928Z,42.90
2023-02-23T02:02:53.330Z,42.90
2023-02-23T02:05:49.650Z,43.00
2023-02-23T02:08:47.177Z,43.10
2023-02-23T02:11:44.344Z,43.10
2023-02-23T02:14:39.649Z,43.10
2023-02-23T02:17:37.365Z,43.10
2023-02-23T02:21:04.446Z,43.20
2023-02-23T02:24:26.041Z,43.20
2023-02-23T02:27:34.851Z,43.20
2023-02-23T02:30:49.372Z,43.30
2023-02-23T02:34:15.795Z,43.30
2023-02-23T02:37:39.022Z,43.40
2023-02-23T02:40:53.109Z,43.50
2023-02-23T02:43:50.938Z,43.50
2023-02-23T02:46:48.598Z,43.60
2023-02-23T02:49:48.446Z,43.60
2023-02-23T02:52:49.737Z,43.70
2023-02-23T02:55:44.886Z,43.70
2023-02-23T02:58:43.394Z,43.80
2023-02-23T03:01:54.066Z,43.80
2023-02-23T03:05:04.322Z,43.80
2023-02-23T03:08:27.145Z,43.90
2023-02-23T03:11:37.481Z,43.80
2023-02-23T03:14:56.298Z,44.60
2023-02-23T03:18:10.465Z,43.90
2023-02-23T03:21:30.084Z,43.90
2023-02-23T03:24:50.317Z,43.90
2023-02-23T03:28:05.441Z,43.90
2023-02-23T03:31:24.306Z,43.90
2023-02-23T03:34:37.262Z,44.00
2023-02-23T03:37:58.061Z,44.00
2023-02-23T03:41:12.616Z,44.00
2023-02-23T03:44:29.844Z,44.00
2023-02-23T03:47:45.895Z,44.00
2023-02-23T03:51:00.363Z,44.10
2023-02-23T03:54:17.924Z,44.10
2023-02-23T03:57:32.420Z,44.10
2023-02-23T04:00:48.799Z,44.10
2023-02-23T04:04:03.155Z,44.10
2023-02-23T04:07:15.964Z,44.20
2023-02-23T04:10:28.509Z,44.10
2023-02-23T04:13:26.228Z,44.20
2023-02-23T04:16:18.486Z,44.20
2023-02-23T04:19:12.557Z,44.20
2023-02-23T04:22:06.089Z,44.30
2023-02-23T04:24:59.023Z,44.30
2023-02-23T04:27:51.934Z,44.30
2023-02-23T04:30:46.578Z,44.30
2023-02-23T04:33:39.830Z,44.30
2023-02-23T04:36:32.899Z,44.30
2023-02-23T04:39:26.373Z,44.30
2023-02-23T04:42:19.419Z,44.40
2023-02-23T04:45:13.419Z,44.40
2023-02-23T04:48:09.185Z,44.40
2023-02-23T04:51:02.241Z,44.40
2023-02-23T04:53:54.859Z,44.40
2023-02-23T04:56:48.361Z,44.40
2023-02-23T04:59:41.506Z,44.40
2023-02-23T05:02:35.188Z,44.50
2023-02-23T05:05:29.314Z,44.50
2023-02-23T05:08:22.322Z,44.50
2023-02-23T05:11:15.152Z,44.60
2023-02-23T05:14:08.242Z,44.60
2023-02-23T05:17:00.903Z,44.60
2023-02-23T05:19:54.498Z,44.70
2023-02-23T05:22:49.621Z,44.70
2023-02-23T05:25:43.368Z,44.70
2023-02-23T05:28:37.260Z,44.80
2023-02-23T05:31:30.832Z,44.80
2023-02-23T05:34:24.008Z,44.80
2023-02-23T05:37:17.185Z,44.80
2023-02-23T05:40:13.105Z,44.90
2023-02-23T05:43:06.034Z,44.90
2023-02-23T05:45:59.228Z,44.90
2023-02-23T05:48:53.127Z,44.90
2023-02-23T05:51:46.042Z,44.90
2023-02-23T05:54:39.012Z,45.00
2023-02-23T05:57:33.858Z,45.00
2023-02-23T06:00:27.161Z,45.10
2023-02-23T06:03:20.222Z,45.10
2023-02-23T06:06:13.333Z,45.20
2023-02-23T06:09:05.998Z,45.20
2023-02-23T06:12:00.749Z,45.20
2023-02-23T06:14:55.678Z,45.20
2023-02-23T06:17:49.045Z,45.20
2023-02-23T06:20:42.313Z,45.20
2023-02-23T06:23:34.937Z,45.20
2023-02-23T06:26:28.362Z,45.30
2023-02-23T06:29:21.228Z,45.40
2023-02-23T06:32:15.799Z,45.40
2023-02-23T06:35:09.985Z,45.40
2023-02-23T06:38:03.704Z,45.40
2023-02-23T06:40:57.150Z,45.50
2023-02-23T06:43:50.304Z,45.50
2023-02-23T06:46:43.355Z,45.50
2023-02-23T06:49:37.472Z,45.50
2023-02-23T06:52:30.569Z,45.50
2023-02-23T06:55:24.111Z,45.50
2023-02-23T06:58:17.569Z,45.50
2023-02-23T07:01:12.258Z,45.50
2023-02-23T07:04:05.448Z,45.60
2023-02-23T07:06:59.716Z,45.60
2023-02-23T07:09:53.355Z,45.70
2023-02-23T07:12:49.355Z,45.80
2023-02-23T07:15:42.542Z,45.80
2023-02-23T07:18:36.464Z,45.90
2023-02-23T07:21:28.935Z,45.90
2023-02-23T07:24:23.731Z,45.90
2023-02-23T07:27:17.369Z,45.90
2023-02-23T07:30:11.539Z,45.80
2023-02-23T07:33:05.171Z,45.80
2023-02-23T07:35:58.020Z,45.80
2023-02-23T07:38:51.587Z,45.80
2023-02-23T07:41:46.481Z,45.80
2023-02-23T07:44:39.429Z,45.80
2023-02-23T07:47:32.712Z,45.90
2023-02-23T07:50:26.381Z,45.90
2023-02-23T07:53:19.529Z,45.90
2023-02-23T07:56:13.965Z,45.90
2023-02-23T07:59:08.510Z,45.90
2023-02-23T08:02:01.932Z,46.00
2023-02-23T08:04:55.132Z,46.00
2023-02-23T08:07:48.257Z,46.10
2023-02-23T08:10:41.038Z,46.10
2023-02-23T08:13:36.045Z,46.10
2023-02-23T08:16:31.218Z,46.10
2023-02-23T08:19:24.277Z,46.20
2023-02-23T08:22:17.188Z,46.20
2023-02-23T08:25:11.226Z,46.20
2023-02-23T08:28:06.863Z,46.20
2023-02-23T08:31:00.780Z,46.30
2023-02-23T08:33:55.348Z,46.30
2023-02-23T08:36:48.132Z,46.30
2023-02-23T08:39:43.398Z,46.40
2023-02-23T08:42:37.898Z,46.30
2023-02-23T08:45:31.377Z,46.40
2023-02-23T08:48:24.612Z,47.00
2023-02-23T08:51:20.070Z,46.30
2023-02-23T08:54:14.893Z,46.40
2023-02-23T08:57:08.263Z,46.40
2023-02-23T09:00:01.738Z,46.40
2023-02-23T09:02:55.334Z,46.40
2023-02-23T09:05:48.451Z,47.50
2023-02-23T09:08:43.188Z,48.10
2023-02-23T09:11:36.373Z,48.10
2023-02-23T09:14:30.108Z,47.90
2023-02-23T09:17:24.007Z,47.80
2023-02-23T09:20:26.701Z,48.00
2023-02-23T09:23:20.128Z,47.80
2023-02-23T09:26:14.637Z,48.10
2023-02-23T09:29:08.769Z,48.60
2023-02-23T09:32:02.504Z,48.70
2023-02-23T09:34:55.250Z,48.80
2023-02-23T09:37:49.776Z,48.80
2023-02-23T09:40:48.673Z,48.80
2023-02-23T09:43:51.291Z,48.70
2023-02-23T09:46:50.266Z,48.80
2023-02-23T09:49:46.598Z,48.70
2023-02-23T09:52:44.863Z,48.80
2023-02-23T09:55:42.814Z,48.70
2023-02-23T09:58:36.790Z,48.70
2023-02-23T10:01:52.410Z,48.60
2023-02-23T10:04:48.138Z,48.70
2023-02-23T10:07:47.141Z,49.30
2023-02-23T10:10:48.430Z,48.70
2023-02-23T10:13:53.914Z,49.00
2023-02-23T10:17:00.902Z,48.80
2023-02-23T10:20:02.292Z,48.80
2023-02-23T10:22:58.121Z,48.90
2023-02-23T10:25:52.965Z,48.90
2023-02-23T10:28:46.977Z,49.10
2023-02-23T10:31:46.102Z,49.10
2023-02-23T10:34:40.914Z,48.70
2023-02-23T10:37:34.152Z,48.80
2023-02-23T10:40:29.567Z,48.70
2023-02-23T10:43:22.734Z,48.50
2023-02-23T10:46:23.122Z,48.50
2023-02-23T10:49:22.580Z,48.50
2023-02-23T10:52:22.669Z,48.30
2023-02-23T10:55:25.286Z,48.90
2023-02-23T10:58:20.962Z,48.10
2023-02-23T11:01:15.682Z,48.10
2023-02-23T11:04:19.062Z,48.10
2023-02-23T11:07:19.835Z,48.00
2023-02-23T11:10:27.542Z,47.90
2023-02-23T11:13:24.160Z,47.80
2023-02-23T11:16:20.127Z,47.70
2023-02-23T11:19:26.305Z,47.70
2023-02-23T11:22:23.270Z,47.80
2023-02-23T11:25:22.681Z,47.70
2023-02-23T11:28:20.933Z,47.60
2023-02-23T11:31:18.220Z,47.60
2023-02-23T11:34:22.456Z,47.70
2023-02-23T11:37:23.572Z,47.10
2023-02-23T11:40:22.839Z,47.40
2023-02-23T11:43:16.927Z,47.60
2023-02-23T11:46:10.726Z,47.70
2023-02-23T11:49:07.765Z,48.00
2023-02-23T11:52:01.440Z,48.00
2023-02-23T11:54:58.589Z,48.20
2023-02-23T11:57:53.057Z,48.20
2023-02-23T12:00:56.970Z,48.20
2023-02-23T12:03:52.689Z,48.20
2023-02-23T12:06:45.408Z,48.20
2023-02-23T12:09:38.837Z,48.30
2023-02-23T12:12:45.237Z,48.30
2023-02-23T12:15:44.870Z,48.10
2023-02-23T12:18:45.332Z,48.20
2023-02-23T12:21:42.894Z,48.20
2023-02-23T12:24:44.787Z,48.30
2023-02-23T12:27:43.906Z,48.60
2023-02-23T12:30:44.733Z,48.50
2023-02-23T12:33:41.555Z,48.60
2023-02-23T12:36:40.619Z,48.70
2023-02-23T12:39:37.087Z,48.60
2023-02-23T12:42:40.628Z,48.60
2023-02-23T12:45:38.297Z,48.60
2023-02-23T12:48:39.965Z,48.60
2023-02-23T12:51:37.442Z,48.60
2023-02-23T12:54:30.569Z,48.60
2023-02-23T12:57:31.251Z,48.60
2023-02-23T13:00:41.096Z,48.90
2023-02-23T13:03:59.580Z,48.80
2023-02-23T13:07:00.337Z,49.00
2023-02-23T13:10:06.535Z,48.70
2023-02-23T13:13:11.348Z,48.90
2023-02-23T13:16:12.707Z,48.90
2023-02-23T13:19:15.239Z,48.90
2023-02-23T13:22:28.451Z,49.00
2023-02-23T13:25:33.919Z,48.90
2023-02-23T13:28:37.397Z,48.80
2023-02-23T13:31:35.374Z,49.00
2023-02-23T13:34:31.717Z,49.00
2023-02-23T13:37:29.214Z,49.10
2023-02-23T13:40:32.127Z,49.00
2023-02-23T13:43:30.394Z,49.70
2023-02-23T13:46:37.210Z,49.20
2023-02-23T13:49:39.638Z,49.30
2023-02-23T13:52:39.650Z,49.30
2023-02-23T13:55:49.550Z,49.30
2023-02-23T13:58:48.621Z,49.50
2023-02-23T14:01:47.586Z,50.20
2023-02-23T14:04:42.894Z,49.60
2023-02-23T14:07:42.937Z,49.70
2023-02-23T14:10:41.096Z,49.70
2023-02-23T14:13:40.168Z,50.00
2023-02-23T14:16:33.462Z,50.70
2023-02-23T14:19:39.904Z,50.60
2023-02-23T14:22:35.326Z,50.30
2023-02-23T14:25:48.609Z,50.20
2023-02-23T14:28:43.969Z,50.50
2023-02-23T14:31:37.910Z,50.50
2023-02-23T14:34:48.337Z,50.40
2023-02-23T14:37:42.456Z,50.30
2023-02-23T14:40:41.602Z,50.40
2023-02-23T14:43:43.230Z,50.50
2023-02-23T14:46:38.353Z,50.40
2023-02-23T14:49:34.990Z,50.30
2023-02-23T14:52:34.092Z,50.20
2023-02-23T14:55:29.779Z,50.20
2023-02-23T14:58:23.689Z,50.20
2023-02-23T15:01:33.897Z,50.10
2023-02-23T15:04:31.308Z,50.10
2023-02-23T15:07:37.289Z,50.30
2023-02-23T15:10:34.090Z,49.90
2023-02-23T15:13:30.069Z,50.50
2023-02-23T15:16:29.992Z,50.50
2023-02-23T15:19:26.822Z,50.50
2023-02-23T15:22:28.482Z,50.70
2023-02-23T15:25:26.198Z,50.60
2023-02-23T15:28:23.223Z,50.80
2023-02-23T15:31:17.142Z,50.70
2023-02-23T15:34:12.325Z,50.80
2023-02-23T15:37:13.062Z,50.70
2023-02-23T15:40:11.218Z,50.80
2023-02-23T15:43:06.858Z,50.90
2023-02-23T15:46:04.293Z,51.30
2023-02-23T15:49:03.292Z,50.80
2023-02-23T15:52:01.193Z,50.80
2023-02-23T15:55:01.636Z,51.10
2023-02-23T15:57:56.804Z,50.80
2023-02-23T16:00:56.928Z,51.10
2023-02-23T16:04:01.837Z,51.00
2023-02-23T16:06:57.067Z,50.90
2023-02-23T16:09:53.505Z,51.00
2023-02-23T16:12:50.723Z,51.10
2023-02-23T16:15:44.497Z,50.90
2023-02-23T16:18:42.139Z,51.30
2023-02-23T16:21:39.650Z,51.00
2023-02-23T16:24:33.058Z,50.90
2023-02-23T16:27:27.830Z,50.60
2023-02-23T16:30:24.707Z,50.60
2023-02-23T16:33:22.723Z,50.60
2023-02-23T16:36:21.773Z,50.70
2023-02-23T16:39:17.489Z,50.40
2023-02-23T16:42:22.381Z,50.20
2023-02-23T16:45:17.680Z,50.20
2023-02-23T16:48:14.481Z,50.20
2023-02-23T16:51:15.176Z,50.00
2023-02-23T16:54:09.832Z,50.00
2023-02-23T16:57:06.026Z,49.90
2023-02-23T17:00:00.396Z,50.00
2023-02-23T17:02:54.530Z,50.10
2023-02-23T17:05:47.774Z,50.20
2023-02-23T17:08:45.944Z,50.00
2023-02-23T17:11:47.100Z,50.00
2023-02-23T17:14:41.161Z,50.00
2023-02-23T17:17:34.543Z,50.00
2023-02-23T17:20:29.503Z,50.00
2023-02-23T17:23:26.957Z,50.00
2023-02-23T17:26:21.928Z,50.10
2023-02-23T17:29:16.411Z,50.20
2023-02-23T17:32:09.880Z,50.20
2023-02-23T17:35:02.810Z,50.30
2023-02-23T17:37:55.858Z,50.20
2023-02-23T17:40:49.946Z,50.20
2023-02-23T17:43:42.975Z,50.10
2023-02-23T17:46:37.069Z,50.10
2023-02-23T17:49:30.457Z,50.00
2023-02-23T17:52:23.864Z,50.60
2023-02-23T17:55:16.929Z,50.00
2023-02-23T17:58:10.161Z,49.80
2023-02-23T18:01:06.821Z,49.80
2023-02-23T18:04:03.094Z,49.20
2023-02-23T18:06:56.745Z,48.40
2023-02-23T18:09:50.546Z,45.10
2023-02-23T18:12:43.699Z,45.30
2023-02-23T18:15:36.774Z,45.80
2023-02-23T18:18:30.035Z,46.40
2023-02-23T18:21:25.705Z,46.80
2023-02-23T18:24:18.724Z,47.20
2023-02-23T18:27:12.622Z,47.40
2023-02-23T18:30:06.659Z,48.00
2023-02-23T18:33:00.698Z,48.40
2023-02-23T18:35:53.410Z,48.50
2023-02-23T18:38:48.294Z,48.60
2023-02-23T18:41:42.276Z,48.70
2023-02-23T18:44:35.787Z,49.00
2023-02-23T18:47:29.790Z,49.10
2023-02-23T18:50:26.343Z,49.20
2023-02-23T18:53:19.831Z,49.30
2023-02-23T18:56:16.233Z,49.80
2023-02-23T18:59:10.018Z,49.90
2023-02-23T19:02:02.602Z,50.60
2023-02-23T19:05:02.801Z,49.90
2023-02-23T19:07:55.860Z,49.90
2023-02-23T19:10:48.615Z,50.10
2023-02-23T19:13:43.479Z,50.10
2023-02-23T19:16:37.515Z,50.20
2023-02-23T19:19:30.730Z,50.30
2023-02-23T19:22:24.377Z,50.40
2023-02-23T19:25:18.527Z,50.30
2023-02-23T19:28:12.849Z,50.40
2023-02-23T19:31:09.611Z,50.70
2023-02-23T19:34:04.726Z,50.60
2023-02-23T19:36:57.631Z,50.70
2023-02-23T19:39:50.784Z,50.80
2023-02-23T19:42:45.935Z,50.80
2023-02-23T19:45:40.832Z,50.80
2023-02-23T19:48:35.766Z,51.00
2023-02-23T19:51:28.823Z,50.70
2023-02-23T19:54:22.181Z,50.10
2023-02-23T19:57:16.112Z,50.10
2023-02-23T20:00:11.964Z,50.00
2023-02-23T20:03:06.506Z,50.00
2023-02-23T20:06:04.912Z,49.90
2023-02-23T20:09:00.220Z,49.90
2023-02-23T20:11:56.080Z,49.80
2023-02-23T20:14:49.552Z,49.80
2023-02-23T20:17:42.900Z,49.70
2023-02-23T20:20:36.906Z,49.70
2023-02-23T20:23:31.022Z,49.60
2023-02-23T20:26:26.378Z,49.60
2023-02-23T20:29:19.946Z,49.60
2023-02-23T20:32:12.987Z,49.50
2023-02-23T20:35:06.761Z,49.40
2023-02-23T20:37:59.946Z,49.40
2023-02-23T20:40:54.290Z,49.40
2023-02-23T20:43:47.902Z,49.40
2023-02-23T20:46:41.827Z,49.30
2023-02-23T20:49:34.895Z,49.30
2023-02-23T20:52:28.173Z,49.30
2023-02-23T20:55:26.312Z,49.20
2023-02-23T20:58:26.159Z,49.20
2023-02-23T21:01:23.689Z,49.20
2023-02-23T21:04:16.988Z,49.20
2023-02-23T21:07:10.196Z,49.10
2023-02-23T21:10:03.851Z,49.10
2023-02-23T21:12:57.021Z,49.10
2023-02-23T21:16:01.039Z,49.10
2023-02-23T21:19:04.088Z,49.10
2023-02-23T21:21:58.696Z,49.10
2023-02-23T21:24:51.617Z,49.00
2023-02-23T21:27:45.090Z,49.00
2023-02-23T21:30:38.006Z,49.00
2023-02-23T21:33:32.567Z,49.00
2023-02-23T21:36:25.801Z,49.00
2023-02-23T21:39:18.918Z,49.00
2023-02-23T21:42:11.929Z,48.90
2023-02-23T21:45:05.688Z,48.90
2023-02-23T21:47:58.647Z,48.90
2023-02-23T21:50:53.471Z,48.80
2023-02-23T21:53:47.911Z,48.90
2023-02-23T21:56:41.108Z,48.80
2023-02-23T21:59:35.955Z,48.80
2023-02-23T22:02:31.976Z,48.80
2023-02-23T22:05:25.159Z,48.80
2023-02-23T22:08:19.373Z,48.80
2023-02-23T22:11:17.278Z,48.80
2023-02-23T22:14:11.372Z,48.80
2023-02-23T22:17:06.316Z,48.70
2023-02-23T22:19:59.846Z,48.70
2023-02-23T22:22:53.094Z,48.70
2023-02-23T22:25:47.256Z,48.70
2023-02-23T22:28:40.536Z,48.70
2023-02-23T22:31:35.180Z,48.60
2023-02-23T22:34:28.302Z,48.60
2023-02-23T22:37:31.428Z,48.70
2023-02-23T22:40:25.161Z,49.30
2023-02-23T22:43:21.901Z,48.60
2023-02-23T22:46:16.495Z,48.70
2023-02-23T22:49:11.775Z,48.70
2023-02-23T22:52:05.781Z,48.60
2023-02-23T22:54:59.525Z,48.60
2023-02-23T22:57:53.137Z,48.60
2023-02-23T23:01:01.948Z,48.60
2023-02-23T23:03:54.471Z,48.60
2023-02-23T23:06:48.093Z,48.60
2023-02-23T23:09:41.329Z,48.60
2023-02-23T23:12:35.217Z,48.60
2023-02-23T23:15:28.173Z,48.60
2023-02-23T23:18:24.437Z,48.60
2023-02-23T23:21:21.901Z,48.60
2023-02-23T23:24:15.392Z,48.50
2023-02-23T23:27:09.096Z,48.50
2023-02-23T23:30:05.467Z,48.50
2023-02-23T23:32:59.373Z,48.50
2023-02-23T23:35:54.126Z,48.50
2023-02-23T23:38:47.236Z,48.50
2023-02-23T23:41:42.946Z,48.70
2023-02-23T23:44:36.001Z,48.70
2023-02-23T23:47:30.403Z,48.70
2023-02-23T23:50:26.660Z,48.70
2023-02-23T23:53:21.154Z,48.70
2023-02-23T23:56:15.270Z,48.60
2023-02-23T23:59:11.479Z,48.40
